Airport View

Enter AWOS ICAO identifier for current METAR.

ex. KFNL

K24A 192350Z AUTO 11008KT 10SM VCTS CLR 17/12 A3025 RMK AO2 LTG DSNT SE AND NW T01690119 10232 20168 402320056

19 Oct 2020 23:48

Frequency: 118.9

Phone: 828-631-3389

Other Area AWOS: K1A5 - KRHP - KAVL - KGKT

TAF KAVL 191730Z 1918/2018 17004KT P6SM FEW040 SCT250 FM200000 00000KT P6SM FEW250 FM200800 00000KT 5SM BR SCT005 FM201300 34004KT P6SM SCT250